Weather at Lubarra Airport

Public forecast

Using degrees Celsius for public forecast. Weather courtesy of forecast.io.

Closest aviation weather report (METAR) to Lubarra Airport

Report is more than 6 hours old.

Closest report is Jomo Kenyatta International Airport, 1.8 nm (3.3 km) SW.

2024/07/19 06:00 (retrieved 1 day ago)

HKJK 190600Z 20006KT 9999 SCT018 BKN080 15/14 Q1025 NOSIG

Closest aviation forecast (TAF) to Lubarra Airport

Closest forecast is Jomo Kenyatta International Airport, 1.8 nm (3.3 km) SW.

2024/07/20 12:24 (retrieved 3 hours ago)

TAF TAF HKJK 201100Z 2012/2118 06004KT 9999 BKN025 BKN080 BECMG 2018/2021 03005KT BKN018 BKN080 BECMG 2100/2103 18005KT SCT008 BKN016 BECMG 2108/2111 09010KT BKN024 BKN090